sensor_id;sensor_type;location;lat;lon;timestamp;P1;durP1;ratioP1;P2;durP2;ratioP2
19414;SDS011;9843;48.882;12.592;2023-07-31T00:02:02;3.13;;;2.93;;
19414;SDS011;9843;48.882;12.592;2023-07-31T00:04:29;3.40;;;2.50;;
19414;SDS011;9843;48.882;12.592;2023-07-31T00:06:56;5.50;;;3.83;;
19414;SDS011;9843;48.882;12.592;2023-07-31T00:09:23;7.47;;;3.50;;
19414;SDS011;9843;48.882;12.592;2023-07-31T00:11:50;3.67;;;2.67;;
19414;SDS011;9843;48.882;12.592;2023-07-31T00:14:17;4.20;;;3.80;;
19414;SDS011;9843;48.882;12.592;2023-07-31T00:16:46;4.30;;;2.77;;
19414;SDS011;9843;48.882;12.592;2023-07-31T00:19:13;8.37;;;3.30;;
19414;SDS011;9843;48.882;12.592;2023-07-31T00:21:40;3.33;;;2.60;;
19414;SDS011;9843;48.882;12.592;2023-07-31T00:24:07;4.33;;;3.30;;
19414;SDS011;9843;48.882;12.592;2023-07-31T00:26:34;2.60;;;2.40;;
19414;SDS011;9843;48.882;12.592;2023-07-31T00:29:01;3.60;;;3.10;;
19414;SDS011;9843;48.882;12.592;2023-07-31T00:31:28;5.67;;;2.80;;
19414;SDS011;9843;48.882;12.592;2023-07-31T00:33:57;3.63;;;2.90;;
19414;SDS011;9843;48.882;12.592;2023-07-31T00:36:24;2.97;;;2.73;;
19414;SDS011;9843;48.882;12.592;2023-07-31T00:38:51;3.43;;;3.13;;
19414;SDS011;9843;48.882;12.592;2023-07-31T00:41:18;4.00;;;2.40;;
19414;SDS011;9843;48.882;12.592;2023-07-31T00:43:45;5.77;;;3.37;;
19414;SDS011;9843;48.882;12.592;2023-07-31T00:46:12;2.60;;;2.20;;
19414;SDS011;9843;48.882;12.592;2023-07-31T00:48:39;6.47;;;3.40;;
19414;SDS011;9843;48.882;12.592;2023-07-31T00:51:08;3.57;;;3.17;;
19414;SDS011;9843;48.882;12.592;2023-07-31T00:53:35;4.63;;;2.80;;
19414;SDS011;9843;48.882;12.592;2023-07-31T00:56:03;3.73;;;2.53;;
19414;SDS011;9843;48.882;12.592;2023-07-31T00:58:30;2.93;;;2.47;;
19414;SDS011;9843;48.882;12.592;2023-07-31T01:00:57;2.53;;;2.33;;
19414;SDS011;9843;48.882;12.592;2023-07-31T01:03:24;5.00;;;3.20;;
19414;SDS011;9843;48.882;12.592;2023-07-31T01:05:53;3.43;;;3.13;;
19414;SDS011;9843;48.882;12.592;2023-07-31T01:08:28;4.33;;;3.10;;
19414;SDS011;9843;48.882;12.592;2023-07-31T01:10:58;4.60;;;2.73;;
19414;SDS011;9843;48.882;12.592;2023-07-31T01:13:27;4.37;;;2.80;;
19414;SDS011;9843;48.882;12.592;2023-07-31T01:15:54;4.10;;;3.67;;
19414;SDS011;9843;48.882;12.592;2023-07-31T01:18:21;3.60;;;3.20;;
19414;SDS011;9843;48.882;12.592;2023-07-31T01:20:51;3.00;;;2.50;;
19414;SDS011;9843;48.882;12.592;2023-07-31T01:23:24;5.27;;;3.30;;
19414;SDS011;9843;48.882;12.592;2023-07-31T01:28:44;2.63;;;2.43;;
19414;SDS011;9843;48.882;12.592;2023-07-31T01:31:13;5.37;;;3.33;;
19414;SDS011;9843;48.882;12.592;2023-07-31T01:33:41;3.27;;;2.97;;
19414;SDS011;9843;48.882;12.592;2023-07-31T01:36:09;4.20;;;2.70;;
19414;SDS011;9843;48.882;12.592;2023-07-31T01:38:37;3.87;;;2.63;;
19414;SDS011;9843;48.882;12.592;2023-07-31T01:41:04;4.20;;;2.83;;
19414;SDS011;9843;48.882;12.592;2023-07-31T01:43:31;3.17;;;2.20;;
19414;SDS011;9843;48.882;12.592;2023-07-31T01:45:59;4.80;;;2.93;;
19414;SDS011;9843;48.882;12.592;2023-07-31T01:48:26;4.33;;;2.50;;
19414;SDS011;9843;48.882;12.592;2023-07-31T01:50:53;3.43;;;3.00;;
19414;SDS011;9843;48.882;12.592;2023-07-31T01:53:20;4.33;;;2.73;;
19414;SDS011;9843;48.882;12.592;2023-07-31T01:55:48;3.40;;;3.03;;
19414;SDS011;9843;48.882;12.592;2023-07-31T01:58:15;4.70;;;3.00;;
19414;SDS011;9843;48.882;12.592;2023-07-31T02:00:42;3.27;;;2.80;;
19414;SDS011;9843;48.882;12.592;2023-07-31T02:03:10;3.40;;;2.97;;
19414;SDS011;9843;48.882;12.592;2023-07-31T02:05:43;5.00;;;3.50;;
19414;SDS011;9843;48.882;12.592;2023-07-31T02:08:10;7.47;;;2.90;;
19414;SDS011;9843;48.882;12.592;2023-07-31T02:10:37;7.43;;;3.10;;
19414;SDS011;9843;48.882;12.592;2023-07-31T02:13:04;3.37;;;3.07;;
19414;SDS011;9843;48.882;12.592;2023-07-31T02:15:32;3.93;;;3.50;;
19414;SDS011;9843;48.882;12.592;2023-07-31T02:17:59;3.63;;;3.33;;
19414;SDS011;9843;48.882;12.592;2023-07-31T02:20:27;3.17;;;2.97;;
19414;SDS011;9843;48.882;12.592;2023-07-31T02:22:54;4.13;;;3.63;;
19414;SDS011;9843;48.882;12.592;2023-07-31T02:25:21;4.33;;;3.93;;
19414;SDS011;9843;48.882;12.592;2023-07-31T02:27:48;4.37;;;3.90;;
19414;SDS011;9843;48.882;12.592;2023-07-31T02:30:15;5.73;;;3.13;;
19414;SDS011;9843;48.882;12.592;2023-07-31T02:32:42;5.90;;;3.90;;
19414;SDS011;9843;48.882;12.592;2023-07-31T02:35:09;4.03;;;3.17;;
19414;SDS011;9843;48.882;12.592;2023-07-31T02:37:41;5.37;;;3.43;;
19414;SDS011;9843;48.882;12.592;2023-07-31T02:40:09;3.70;;;3.00;;
19414;SDS011;9843;48.882;12.592;2023-07-31T02:42:36;5.17;;;3.20;;
19414;SDS011;9843;48.882;12.592;2023-07-31T02:45:03;4.13;;;2.83;;
19414;SDS011;9843;48.882;12.592;2023-07-31T02:47:31;4.13;;;3.33;;
19414;SDS011;9843;48.882;12.592;2023-07-31T02:49:58;2.80;;;2.50;;
19414;SDS011;9843;48.882;12.592;2023-07-31T02:52:25;4.00;;;3.60;;
19414;SDS011;9843;48.882;12.592;2023-07-31T02:54:53;5.53;;;2.93;;
19414;SDS011;9843;48.882;12.592;2023-07-31T02:57:20;4.27;;;3.87;;
19414;SDS011;9843;48.882;12.592;2023-07-31T02:59:48;4.23;;;2.90;;
19414;SDS011;9843;48.882;12.592;2023-07-31T03:02:15;4.00;;;3.40;;
19414;SDS011;9843;48.882;12.592;2023-07-31T03:04:42;3.73;;;3.33;;
19414;SDS011;9843;48.882;12.592;2023-07-31T03:07:09;4.83;;;4.33;;
19414;SDS011;9843;48.882;12.592;2023-07-31T03:09:36;5.83;;;3.43;;
19414;SDS011;9843;48.882;12.592;2023-07-31T03:12:04;4.03;;;3.73;;
19414;SDS011;9843;48.882;12.592;2023-07-31T03:14:32;6.00;;;4.30;;
19414;SDS011;9843;48.882;12.592;2023-07-31T03:16:59;3.77;;;3.30;;
19414;SDS011;9843;48.882;12.592;2023-07-31T03:19:26;3.73;;;3.40;;
19414;SDS011;9843;48.882;12.592;2023-07-31T03:21:53;5.73;;;4.33;;
19414;SDS011;9843;48.882;12.592;2023-07-31T03:24:20;9.70;;;4.53;;
19414;SDS011;9843;48.882;12.592;2023-07-31T03:26:47;5.13;;;4.33;;
19414;SDS011;9843;48.882;12.592;2023-07-31T03:29:15;8.80;;;4.20;;
19414;SDS011;9843;48.882;12.592;2023-07-31T03:31:42;4.07;;;3.43;;
19414;SDS011;9843;48.882;12.592;2023-07-31T03:34:09;3.17;;;2.80;;
19414;SDS011;9843;48.882;12.592;2023-07-31T03:36:36;11.83;;;4.60;;
19414;SDS011;9843;48.882;12.592;2023-07-31T03:39:03;5.93;;;3.87;;
19414;SDS011;9843;48.882;12.592;2023-07-31T03:41:30;4.17;;;2.80;;
19414;SDS011;9843;48.882;12.592;2023-07-31T03:43:57;7.17;;;3.53;;
19414;SDS011;9843;48.882;12.592;2023-07-31T03:46:26;3.80;;;3.50;;
19414;SDS011;9843;48.882;12.592;2023-07-31T03:48:53;4.97;;;3.90;;
19414;SDS011;9843;48.882;12.592;2023-07-31T03:51:20;4.50;;;3.70;;
19414;SDS011;9843;48.882;12.592;2023-07-31T03:53:47;14.77;;;5.10;;
19414;SDS011;9843;48.882;12.592;2023-07-31T03:56:14;4.00;;;3.53;;
19414;SDS011;9843;48.882;12.592;2023-07-31T03:58:41;4.90;;;3.83;;
19414;SDS011;9843;48.882;12.592;2023-07-31T04:01:08;5.87;;;3.93;;
19414;SDS011;9843;48.882;12.592;2023-07-31T04:03:37;4.70;;;4.30;;
19414;SDS011;9843;48.882;12.592;2023-07-31T04:06:04;5.27;;;3.63;;
19414;SDS011;9843;48.882;12.592;2023-07-31T04:08:32;5.40;;;4.10;;
19414;SDS011;9843;48.882;12.592;2023-07-31T04:10:59;6.20;;;3.80;;
19414;SDS011;9843;48.882;12.592;2023-07-31T04:13:26;7.20;;;3.93;;
19414;SDS011;9843;48.882;12.592;2023-07-31T04:15:53;5.90;;;3.97;;
19414;SDS011;9843;48.882;12.592;2023-07-31T04:18:20;9.13;;;4.27;;
19414;SDS011;9843;48.882;12.592;2023-07-31T04:20:49;7.23;;;4.03;;
19414;SDS011;9843;48.882;12.592;2023-07-31T04:23:16;4.63;;;3.83;;
19414;SDS011;9843;48.882;12.592;2023-07-31T04:25:43;5.63;;;4.90;;
19414;SDS011;9843;48.882;12.592;2023-07-31T04:28:10;3.97;;;3.63;;
19414;SDS011;9843;48.882;12.592;2023-07-31T04:30:37;7.00;;;4.27;;
19414;SDS011;9843;48.882;12.592;2023-07-31T04:33:04;4.60;;;4.10;;
19414;SDS011;9843;48.882;12.592;2023-07-31T04:35:31;5.67;;;4.23;;
19414;SDS011;9843;48.882;12.592;2023-07-31T04:37:59;4.33;;;3.93;;
19414;SDS011;9843;48.882;12.592;2023-07-31T04:40:26;4.87;;;4.47;;
19414;SDS011;9843;48.882;12.592;2023-07-31T04:42:53;5.33;;;4.57;;
19414;SDS011;9843;48.882;12.592;2023-07-31T04:45:20;11.17;;;4.77;;
19414;SDS011;9843;48.882;12.592;2023-07-31T04:47:47;7.37;;;5.00;;
19414;SDS011;9843;48.882;12.592;2023-07-31T04:50:14;5.23;;;4.30;;
19414;SDS011;9843;48.882;12.592;2023-07-31T04:52:42;5.33;;;4.43;;
19414;SDS011;9843;48.882;12.592;2023-07-31T04:55:10;15.10;;;5.70;;
19414;SDS011;9843;48.882;12.592;2023-07-31T04:57:37;6.30;;;4.17;;
19414;SDS011;9843;48.882;12.592;2023-07-31T05:00:05;6.13;;;3.67;;
19414;SDS011;9843;48.882;12.592;2023-07-31T05:02:32;7.87;;;4.20;;
19414;SDS011;9843;48.882;12.592;2023-07-31T05:04:59;15.27;;;5.90;;
19414;SDS011;9843;48.882;12.592;2023-07-31T05:07:26;6.23;;;4.87;;
19414;SDS011;9843;48.882;12.592;2023-07-31T05:09:53;9.40;;;5.07;;
19414;SDS011;9843;48.882;12.592;2023-07-31T05:12:22;12.37;;;6.17;;
19414;SDS011;9843;48.882;12.592;2023-07-31T05:14:49;7.37;;;4.50;;
19414;SDS011;9843;48.882;12.592;2023-07-31T05:17:16;6.03;;;4.70;;
19414;SDS011;9843;48.882;12.592;2023-07-31T05:19:43;5.00;;;4.60;;
19414;SDS011;9843;48.882;12.592;2023-07-31T05:22:10;4.77;;;4.10;;
19414;SDS011;9843;48.882;12.592;2023-07-31T05:24:37;6.87;;;6.20;;
19414;SDS011;9843;48.882;12.592;2023-07-31T05:27:04;5.70;;;4.30;;
19414;SDS011;9843;48.882;12.592;2023-07-31T05:29:33;7.80;;;4.07;;
19414;SDS011;9843;48.882;12.592;2023-07-31T05:32:00;8.10;;;4.30;;
19414;SDS011;9843;48.882;12.592;2023-07-31T05:34:27;4.53;;;3.87;;
19414;SDS011;9843;48.882;12.592;2023-07-31T05:36:54;5.77;;;4.00;;
19414;SDS011;9843;48.882;12.592;2023-07-31T05:39:21;5.83;;;3.90;;
19414;SDS011;9843;48.882;12.592;2023-07-31T05:41:49;4.30;;;3.57;;
19414;SDS011;9843;48.882;12.592;2023-07-31T05:44:16;5.03;;;3.70;;
19414;SDS011;9843;48.882;12.592;2023-07-31T05:46:44;4.60;;;4.03;;
19414;SDS011;9843;48.882;12.592;2023-07-31T05:49:11;5.77;;;3.57;;
19414;SDS011;9843;48.882;12.592;2023-07-31T05:51:38;3.90;;;3.43;;
19414;SDS011;9843;48.882;12.592;2023-07-31T05:54:05;3.53;;;2.93;;
19414;SDS011;9843;48.882;12.592;2023-07-31T05:56:32;4.63;;;2.40;;
19414;SDS011;9843;48.882;12.592;2023-07-31T05:58:59;5.07;;;3.17;;
19414;SDS011;9843;48.882;12.592;2023-07-31T06:01:32;4.90;;;4.03;;
19414;SDS011;9843;48.882;12.592;2023-07-31T06:04:15;6.67;;;3.47;;
19414;SDS011;9843;48.882;12.592;2023-07-31T06:06:42;5.07;;;2.50;;
19414;SDS011;9843;48.882;12.592;2023-07-31T06:09:09;3.40;;;2.80;;
19414;SDS011;9843;48.882;12.592;2023-07-31T06:11:36;7.40;;;3.27;;
19414;SDS011;9843;48.882;12.592;2023-07-31T06:14:03;3.87;;;2.77;;
19414;SDS011;9843;48.882;12.592;2023-07-31T06:16:30;7.13;;;2.40;;
19414;SDS011;9843;48.882;12.592;2023-07-31T06:18:58;3.53;;;2.23;;
19414;SDS011;9843;48.882;12.592;2023-07-31T06:21:26;9.03;;;2.07;;
19414;SDS011;9843;48.882;12.592;2023-07-31T06:23:53;3.67;;;1.77;;
19414;SDS011;9843;48.882;12.592;2023-07-31T06:26:20;2.97;;;1.90;;
19414;SDS011;9843;48.882;12.592;2023-07-31T06:28:47;6.83;;;2.83;;
19414;SDS011;9843;48.882;12.592;2023-07-31T06:31:14;2.20;;;1.87;;
19414;SDS011;9843;48.882;12.592;2023-07-31T06:33:45;2.93;;;2.40;;
19414;SDS011;9843;48.882;12.592;2023-07-31T06:36:12;10.10;;;2.83;;
19414;SDS011;9843;48.882;12.592;2023-07-31T06:38:40;5.03;;;2.23;;
19414;SDS011;9843;48.882;12.592;2023-07-31T06:41:07;7.43;;;1.80;;
19414;SDS011;9843;48.882;12.592;2023-07-31T06:43:35;5.97;;;2.50;;
19414;SDS011;9843;48.882;12.592;2023-07-31T06:46:04;9.30;;;3.40;;
19414;SDS011;9843;48.882;12.592;2023-07-31T06:48:31;8.10;;;1.50;;
19414;SDS011;9843;48.882;12.592;2023-07-31T06:50:58;4.13;;;2.63;;
19414;SDS011;9843;48.882;12.592;2023-07-31T06:53:26;2.87;;;1.93;;
19414;SDS011;9843;48.882;12.592;2023-07-31T06:55:54;3.50;;;2.47;;
19414;SDS011;9843;48.882;12.592;2023-07-31T06:58:21;4.67;;;2.20;;
19414;SDS011;9843;48.882;12.592;2023-07-31T07:00:48;5.73;;;2.87;;
19414;SDS011;9843;48.882;12.592;2023-07-31T07:03:18;2.43;;;2.07;;
19414;SDS011;9843;48.882;12.592;2023-07-31T07:05:45;2.60;;;2.00;;
19414;SDS011;9843;48.882;12.592;2023-07-31T07:08:12;8.87;;;2.07;;
19414;SDS011;9843;48.882;12.592;2023-07-31T07:10:39;3.83;;;1.77;;
19414;SDS011;9843;48.882;12.592;2023-07-31T07:13:08;9.50;;;2.97;;
19414;SDS011;9843;48.882;12.592;2023-07-31T07:15:35;8.13;;;2.10;;
19414;SDS011;9843;48.882;12.592;2023-07-31T07:18:02;6.40;;;2.23;;
19414;SDS011;9843;48.882;12.592;2023-07-31T07:20:29;2.77;;;1.83;;
19414;SDS011;9843;48.882;12.592;2023-07-31T07:22:56;5.27;;;2.20;;
19414;SDS011;9843;48.882;12.592;2023-07-31T07:25:23;5.33;;;2.03;;
19414;SDS011;9843;48.882;12.592;2023-07-31T07:27:50;3.00;;;1.77;;
19414;SDS011;9843;48.882;12.592;2023-07-31T07:30:19;10.43;;;2.67;;
19414;SDS011;9843;48.882;12.592;2023-07-31T07:32:46;4.03;;;2.10;;
19414;SDS011;9843;48.882;12.592;2023-07-31T07:35:13;2.37;;;1.90;;
19414;SDS011;9843;48.882;12.592;2023-07-31T07:37:40;3.13;;;2.00;;
19414;SDS011;9843;48.882;12.592;2023-07-31T07:40:07;2.63;;;1.40;;
19414;SDS011;9843;48.882;12.592;2023-07-31T07:42:35;3.93;;;1.53;;
19414;SDS011;9843;48.882;12.592;2023-07-31T07:45:02;7.70;;;1.93;;
19414;SDS011;9843;48.882;12.592;2023-07-31T07:47:30;3.30;;;1.63;;
19414;SDS011;9843;48.882;12.592;2023-07-31T07:49:57;4.03;;;1.57;;
19414;SDS011;9843;48.882;12.592;2023-07-31T07:52:24;1.63;;;1.03;;
19414;SDS011;9843;48.882;12.592;2023-07-31T07:54:52;3.43;;;1.40;;
19414;SDS011;9843;48.882;12.592;2023-07-31T07:57:19;4.30;;;1.83;;
19414;SDS011;9843;48.882;12.592;2023-07-31T07:59:46;1.50;;;1.10;;
19414;SDS011;9843;48.882;12.592;2023-07-31T08:02:13;2.57;;;1.43;;
19414;SDS011;9843;48.882;12.592;2023-07-31T08:04:41;1.93;;;0.93;;
19414;SDS011;9843;48.882;12.592;2023-07-31T08:07:10;5.00;;;1.40;;
19414;SDS011;9843;48.882;12.592;2023-07-31T08:09:37;2.50;;;1.17;;
19414;SDS011;9843;48.882;12.592;2023-07-31T08:12:04;5.43;;;1.03;;
19414;SDS011;9843;48.882;12.592;2023-07-31T08:14:31;3.40;;;1.20;;
19414;SDS011;9843;48.882;12.592;2023-07-31T08:16:59;2.43;;;1.20;;
19414;SDS011;9843;48.882;12.592;2023-07-31T08:19:26;2.20;;;1.20;;
19414;SDS011;9843;48.882;12.592;2023-07-31T08:21:54;2.50;;;1.43;;
19414;SDS011;9843;48.882;12.592;2023-07-31T08:24:21;2.20;;;1.10;;
19414;SDS011;9843;48.882;12.592;2023-07-31T08:26:48;4.60;;;1.23;;
19414;SDS011;9843;48.882;12.592;2023-07-31T08:29:15;4.65;;;1.33;;
19414;SDS011;9843;48.882;12.592;2023-07-31T08:31:42;2.65;;;1.05;;
19414;SDS011;9843;48.882;12.592;2023-07-31T08:34:09;1.67;;;0.80;;
19414;SDS011;9843;48.882;12.592;2023-07-31T08:36:36;10.65;;;1.88;;
19414;SDS011;9843;48.882;12.592;2023-07-31T08:39:05;4.93;;;1.02;;
19414;SDS011;9843;48.882;12.592;2023-07-31T08:41:36;6.32;;;2.08;;
19414;SDS011;9843;48.882;12.592;2023-07-31T08:44:03;3.40;;;1.30;;
19414;SDS011;9843;48.882;12.592;2023-07-31T08:46:31;3.20;;;2.03;;
19414;SDS011;9843;48.882;12.592;2023-07-31T08:48:59;1.95;;;1.42;;
19414;SDS011;9843;48.882;12.592;2023-07-31T08:51:26;2.70;;;1.17;;
19414;SDS011;9843;48.882;12.592;2023-07-31T08:53:53;5.03;;;1.80;;
19414;SDS011;9843;48.882;12.592;2023-07-31T08:56:23;10.97;;;2.87;;
19414;SDS011;9843;48.882;12.592;2023-07-31T08:58:51;3.60;;;1.40;;
19414;SDS011;9843;48.882;12.592;2023-07-31T09:01:20;1.90;;;1.40;;
19414;SDS011;9843;48.882;12.592;2023-07-31T09:03:47;4.70;;;1.30;;
19414;SDS011;9843;48.882;12.592;2023-07-31T09:06:16;5.10;;;1.67;;
19414;SDS011;9843;48.882;12.592;2023-07-31T09:08:45;3.17;;;1.67;;
19414;SDS011;9843;48.882;12.592;2023-07-31T09:11:12;4.57;;;1.60;;
19414;SDS011;9843;48.882;12.592;2023-07-31T09:13:41;2.90;;;1.50;;
19414;SDS011;9843;48.882;12.592;2023-07-31T09:16:08;28.83;;;5.53;;
19414;SDS011;9843;48.882;12.592;2023-07-31T09:18:41;4.27;;;1.60;;
19414;SDS011;9843;48.882;12.592;2023-07-31T09:21:19;5.47;;;1.90;;
19414;SDS011;9843;48.882;12.592;2023-07-31T09:23:46;6.40;;;1.20;;
19414;SDS011;9843;48.882;12.592;2023-07-31T09:26:28;2.77;;;2.03;;
19414;SDS011;9843;48.882;12.592;2023-07-31T09:28:56;3.42;;;1.30;;
19414;SDS011;9843;48.882;12.592;2023-07-31T09:31:33;4.43;;;2.25;;
19414;SDS011;9843;48.882;12.592;2023-07-31T09:34:00;2.55;;;0.80;;
19414;SDS011;9843;48.882;12.592;2023-07-31T09:36:28;4.90;;;1.20;;
19414;SDS011;9843;48.882;12.592;2023-07-31T09:39:01;3.28;;;0.80;;
19414;SDS011;9843;48.882;12.592;2023-07-31T09:41:28;2.45;;;1.40;;
19414;SDS011;9843;48.882;12.592;2023-07-31T09:43:57;3.50;;;1.95;;
19414;SDS011;9843;48.882;12.592;2023-07-31T09:46:26;2.78;;;1.08;;
19414;SDS011;9843;48.882;12.592;2023-07-31T09:48:59;2.17;;;0.82;;
19414;SDS011;9843;48.882;12.592;2023-07-31T09:51:29;3.13;;;1.30;;
19414;SDS011;9843;48.882;12.592;2023-07-31T09:53:57;2.63;;;1.60;;
19414;SDS011;9843;48.882;12.592;2023-07-31T09:56:24;1.73;;;0.75;;
19414;SDS011;9843;48.882;12.592;2023-07-31T09:58:51;2.85;;;0.90;;
19414;SDS011;9843;48.882;12.592;2023-07-31T10:01:21;2.35;;;1.30;;
19414;SDS011;9843;48.882;12.592;2023-07-31T10:03:48;2.13;;;0.95;;
19414;SDS011;9843;48.882;12.592;2023-07-31T10:06:15;2.50;;;1.35;;
19414;SDS011;9843;48.882;12.592;2023-07-31T10:08:44;5.45;;;1.05;;
19414;SDS011;9843;48.882;12.592;2023-07-31T10:11:12;4.57;;;1.33;;
19414;SDS011;9843;48.882;12.592;2023-07-31T10:13:40;6.70;;;1.52;;
19414;SDS011;9843;48.882;12.592;2023-07-31T10:16:07;2.33;;;1.25;;
19414;SDS011;9843;48.882;12.592;2023-07-31T10:18:36;5.35;;;1.58;;
19414;SDS011;9843;48.882;12.592;2023-07-31T10:21:04;4.90;;;1.08;;
19414;SDS011;9843;48.882;12.592;2023-07-31T10:23:32;2.08;;;1.25;;
19414;SDS011;9843;48.882;12.592;2023-07-31T10:25:59;4.22;;;1.00;;
19414;SDS011;9843;48.882;12.592;2023-07-31T10:28:28;1.83;;;0.57;;
19414;SDS011;9843;48.882;12.592;2023-07-31T10:30:55;1.92;;;0.80;;
19414;SDS011;9843;48.882;12.592;2023-07-31T10:33:23;2.25;;;0.82;;
19414;SDS011;9843;48.882;12.592;2023-07-31T10:35:51;1.88;;;0.68;;
19414;SDS011;9843;48.882;12.592;2023-07-31T10:38:38;2.47;;;1.60;;
19414;SDS011;9843;48.882;12.592;2023-07-31T10:41:07;2.05;;;1.30;;
19414;SDS011;9843;48.882;12.592;2023-07-31T10:43:35;1.58;;;0.88;;
19414;SDS011;9843;48.882;12.592;2023-07-31T10:46:06;4.18;;;1.08;;
19414;SDS011;9843;48.882;12.592;2023-07-31T10:48:34;1.10;;;0.73;;
19414;SDS011;9843;48.882;12.592;2023-07-31T10:51:06;8.57;;;1.67;;
19414;SDS011;9843;48.882;12.592;2023-07-31T10:53:33;1.98;;;1.08;;
19414;SDS011;9843;48.882;12.592;2023-07-31T10:56:01;2.22;;;0.90;;
19414;SDS011;9843;48.882;12.592;2023-07-31T10:58:29;3.30;;;1.05;;
19414;SDS011;9843;48.882;12.592;2023-07-31T11:00:57;3.38;;;0.90;;
19414;SDS011;9843;48.882;12.592;2023-07-31T11:03:25;5.85;;;1.27;;
19414;SDS011;9843;48.882;12.592;2023-07-31T11:05:53;2.83;;;1.00;;
19414;SDS011;9843;48.882;12.592;2023-07-31T11:08:22;1.80;;;1.27;;
19414;SDS011;9843;48.882;12.592;2023-07-31T11:10:50;5.55;;;1.25;;
19414;SDS011;9843;48.882;12.592;2023-07-31T11:13:19;2.20;;;1.10;;
19414;SDS011;9843;48.882;12.592;2023-07-31T11:15:46;3.55;;;1.08;;
19414;SDS011;9843;48.882;12.592;2023-07-31T11:18:13;3.10;;;1.00;;
19414;SDS011;9843;48.882;12.592;2023-07-31T11:20:41;2.28;;;1.08;;
19414;SDS011;9843;48.882;12.592;2023-07-31T11:23:09;4.90;;;1.30;;
19414;SDS011;9843;48.882;12.592;2023-07-31T11:25:38;4.82;;;1.33;;
19414;SDS011;9843;48.882;12.592;2023-07-31T11:28:07;1.50;;;1.00;;
19414;SDS011;9843;48.882;12.592;2023-07-31T11:30:34;6.13;;;1.17;;
19414;SDS011;9843;48.882;12.592;2023-07-31T11:33:01;1.38;;;0.80;;
19414;SDS011;9843;48.882;12.592;2023-07-31T11:35:29;2.95;;;1.00;;
19414;SDS011;9843;48.882;12.592;2023-07-31T11:37:56;3.72;;;1.35;;
19414;SDS011;9843;48.882;12.592;2023-07-31T11:40:23;2.90;;;1.35;;
19414;SDS011;9843;48.882;12.592;2023-07-31T11:42:55;1.95;;;1.00;;
19414;SDS011;9843;48.882;12.592;2023-07-31T11:45:24;3.03;;;1.38;;
19414;SDS011;9843;48.882;12.592;2023-07-31T11:47:51;8.57;;;1.38;;
19414;SDS011;9843;48.882;12.592;2023-07-31T11:50:18;1.63;;;0.95;;
19414;SDS011;9843;48.882;12.592;2023-07-31T11:52:46;3.40;;;1.15;;
19414;SDS011;9843;48.882;12.592;2023-07-31T11:55:13;3.47;;;0.93;;
19414;SDS011;9843;48.882;12.592;2023-07-31T11:57:41;2.60;;;1.02;;
19414;SDS011;9843;48.882;12.592;2023-07-31T12:00:12;2.45;;;1.40;;
19414;SDS011;9843;48.882;12.592;2023-07-31T12:02:39;4.60;;;1.77;;
19414;SDS011;9843;48.882;12.592;2023-07-31T12:05:10;3.53;;;1.50;;
19414;SDS011;9843;48.882;12.592;2023-07-31T12:07:44;1.83;;;1.20;;
19414;SDS011;9843;48.882;12.592;2023-07-31T12:10:11;1.75;;;1.13;;
19414;SDS011;9843;48.882;12.592;2023-07-31T12:12:38;5.25;;;2.17;;
19414;SDS011;9843;48.882;12.592;2023-07-31T12:15:14;2.35;;;1.30;;
19414;SDS011;9843;48.882;12.592;2023-07-31T12:17:41;3.10;;;0.90;;
19414;SDS011;9843;48.882;12.592;2023-07-31T12:20:09;1.73;;;0.80;;
19414;SDS011;9843;48.882;12.592;2023-07-31T12:22:36;2.30;;;1.00;;
19414;SDS011;9843;48.882;12.592;2023-07-31T12:25:03;1.20;;;1.08;;
19414;SDS011;9843;48.882;12.592;2023-07-31T12:27:32;3.35;;;1.15;;
19414;SDS011;9843;48.882;12.592;2023-07-31T12:30:00;3.75;;;1.35;;
19414;SDS011;9843;48.882;12.592;2023-07-31T12:32:29;4.65;;;1.83;;
19414;SDS011;9843;48.882;12.592;2023-07-31T12:34:59;2.33;;;1.30;;
19414;SDS011;9843;48.882;12.592;2023-07-31T12:37:28;4.53;;;1.85;;
19414;SDS011;9843;48.882;12.592;2023-07-31T12:39:57;2.08;;;1.35;;
19414;SDS011;9843;48.882;12.592;2023-07-31T12:42:30;2.90;;;1.58;;
19414;SDS011;9843;48.882;12.592;2023-07-31T12:44:57;1.80;;;1.17;;
19414;SDS011;9843;48.882;12.592;2023-07-31T12:47:24;1.42;;;1.27;;
19414;SDS011;9843;48.882;12.592;2023-07-31T12:49:52;3.15;;;1.15;;
19414;SDS011;9843;48.882;12.592;2023-07-31T12:52:19;3.80;;;1.58;;
19414;SDS011;9843;48.882;12.592;2023-07-31T12:54:46;4.32;;;1.30;;
19414;SDS011;9843;48.882;12.592;2023-07-31T12:57:13;2.70;;;1.30;;
19414;SDS011;9843;48.882;12.592;2023-07-31T12:59:40;6.50;;;2.15;;
19414;SDS011;9843;48.882;12.592;2023-07-31T13:02:07;6.03;;;1.90;;
19414;SDS011;9843;48.882;12.592;2023-07-31T13:04:34;5.55;;;1.15;;
19414;SDS011;9843;48.882;12.592;2023-07-31T13:07:03;2.22;;;1.17;;
19414;SDS011;9843;48.882;12.592;2023-07-31T13:09:30;2.10;;;1.17;;
19414;SDS011;9843;48.882;12.592;2023-07-31T13:11:57;0.88;;;0.82;;
19414;SDS011;9843;48.882;12.592;2023-07-31T13:14:24;2.78;;;0.95;;
19414;SDS011;9843;48.882;12.592;2023-07-31T13:16:51;2.10;;;1.13;;
19414;SDS011;9843;48.882;12.592;2023-07-31T13:19:18;1.98;;;1.20;;
19414;SDS011;9843;48.882;12.592;2023-07-31T13:21:45;4.60;;;1.27;;
19414;SDS011;9843;48.882;12.592;2023-07-31T13:24:14;5.43;;;1.67;;
19414;SDS011;9843;48.882;12.592;2023-07-31T13:26:41;1.60;;;1.05;;
19414;SDS011;9843;48.882;12.592;2023-07-31T13:29:08;3.92;;;1.02;;
19414;SDS011;9843;48.882;12.592;2023-07-31T13:31:35;2.63;;;1.48;;
19414;SDS011;9843;48.882;12.592;2023-07-31T13:34:02;5.72;;;1.52;;
19414;SDS011;9843;48.882;12.592;2023-07-31T13:36:30;1.20;;;0.77;;
19414;SDS011;9843;48.882;12.592;2023-07-31T13:38:59;18.50;;;2.67;;
19414;SDS011;9843;48.882;12.592;2023-07-31T13:41:27;1.95;;;0.90;;
19414;SDS011;9843;48.882;12.592;2023-07-31T13:43:54;1.45;;;0.98;;
19414;SDS011;9843;48.882;12.592;2023-07-31T13:46:21;3.92;;;1.88;;
19414;SDS011;9843;48.882;12.592;2023-07-31T13:48:48;4.10;;;1.05;;
19414;SDS011;9843;48.882;12.592;2023-07-31T13:51:15;2.33;;;1.10;;
19414;SDS011;9843;48.882;12.592;2023-07-31T13:53:42;1.30;;;0.90;;
19414;SDS011;9843;48.882;12.592;2023-07-31T13:56:09;2.90;;;0.90;;
19414;SDS011;9843;48.882;12.592;2023-07-31T13:58:38;1.95;;;1.25;;
19414;SDS011;9843;48.882;12.592;2023-07-31T14:01:05;4.45;;;1.30;;
19414;SDS011;9843;48.882;12.592;2023-07-31T14:03:32;3.05;;;1.13;;
19414;SDS011;9843;48.882;12.592;2023-07-31T14:05:59;2.22;;;1.10;;
19414;SDS011;9843;48.882;12.592;2023-07-31T14:08:26;3.10;;;1.05;;
19414;SDS011;9843;48.882;12.592;2023-07-31T14:10:54;2.35;;;1.13;;
19414;SDS011;9843;48.882;12.592;2023-07-31T14:13:21;4.88;;;1.20;;
19414;SDS011;9843;48.882;12.592;2023-07-31T14:15:49;1.90;;;1.60;;
19414;SDS011;9843;48.882;12.592;2023-07-31T14:18:17;5.03;;;1.58;;
19414;SDS011;9843;48.882;12.592;2023-07-31T14:20:44;2.92;;;2.00;;
19414;SDS011;9843;48.882;12.592;2023-07-31T14:23:11;1.95;;;1.25;;
19414;SDS011;9843;48.882;12.592;2023-07-31T14:25:38;1.85;;;1.10;;
19414;SDS011;9843;48.882;12.592;2023-07-31T14:28:05;3.08;;;1.63;;
19414;SDS011;9843;48.882;12.592;2023-07-31T14:30:32;3.35;;;1.25;;
19414;SDS011;9843;48.882;12.592;2023-07-31T14:33:00;4.63;;;1.70;;
19414;SDS011;9843;48.882;12.592;2023-07-31T14:35:28;1.63;;;1.38;;
19414;SDS011;9843;48.882;12.592;2023-07-31T14:37:55;1.60;;;1.15;;
19414;SDS011;9843;48.882;12.592;2023-07-31T14:40:22;2.15;;;1.55;;
19414;SDS011;9843;48.882;12.592;2023-07-31T14:42:49;3.90;;;2.47;;
19414;SDS011;9843;48.882;12.592;2023-07-31T14:45:16;5.45;;;1.48;;
19414;SDS011;9843;48.882;12.592;2023-07-31T14:47:43;4.88;;;1.65;;
19414;SDS011;9843;48.882;12.592;2023-07-31T14:50:11;3.70;;;2.05;;
19414;SDS011;9843;48.882;12.592;2023-07-31T14:52:38;2.38;;;1.30;;
19414;SDS011;9843;48.882;12.592;2023-07-31T14:55:05;3.40;;;1.35;;